createdAt,value
2018-10-02T00:02:26.212Z,3.63
2018-10-02T00:04:55.771Z,6.83
2018-10-02T00:07:24.342Z,2.53
2018-10-02T00:09:53.834Z,1.80
2018-10-02T00:12:29.011Z,3.70
2018-10-02T00:14:57.423Z,2.60
2018-10-02T00:17:25.835Z,2.73
2018-10-02T00:19:54.165Z,3.50
2018-10-02T00:22:22.472Z,2.93
2018-10-02T00:24:50.898Z,4.13
2018-10-02T00:27:19.833Z,3.43
2018-10-02T00:29:48.171Z,3.37
2018-10-02T00:32:16.915Z,4.90
2018-10-02T00:34:45.699Z,3.80
2018-10-02T00:37:14.476Z,4.23
2018-10-02T00:39:43.063Z,4.77
2018-10-02T00:42:11.392Z,2.53
2018-10-02T00:44:39.757Z,2.60
2018-10-02T00:47:08.286Z,4.83
2018-10-02T00:49:37.963Z,3.47
2018-10-02T00:52:06.363Z,4.57
2018-10-02T00:54:34.811Z,7.23
2018-10-02T00:57:03.702Z,2.73
2018-10-02T00:59:32.244Z,6.97
2018-10-02T01:02:00.832Z,6.03
2018-10-02T01:04:29.940Z,4.63
2018-10-02T01:06:58.285Z,2.93
2018-10-02T01:09:26.768Z,5.87
2018-10-02T01:12:04.642Z,4.73
2018-10-02T01:14:33.587Z,3.17
2018-10-02T01:17:02.459Z,3.87
2018-10-02T01:19:32.724Z,4.73
2018-10-02T01:22:02.362Z,5.40
2018-10-02T01:24:30.891Z,4.03
2018-10-02T01:26:59.958Z,3.97
2018-10-02T01:29:28.249Z,6.30
2018-10-02T01:31:56.875Z,7.20
2018-10-02T01:34:25.435Z,3.87
2018-10-02T01:36:53.772Z,4.07
2018-10-02T01:39:22.460Z,5.80
2018-10-02T01:41:51.525Z,5.47
2018-10-02T01:44:20.343Z,5.70
2018-10-02T01:46:49.717Z,7.77
2018-10-02T01:49:18.374Z,4.20
2018-10-02T01:51:47.833Z,6.37
2018-10-02T01:54:16.132Z,5.40
2018-10-02T01:56:44.996Z,5.40
2018-10-02T01:59:13.604Z,11.30
2018-10-02T02:01:41.961Z,7.30
2018-10-02T02:04:10.470Z,5.87
2018-10-02T02:06:38.934Z,6.10
2018-10-02T02:09:07.694Z,7.23
2018-10-02T02:11:36.214Z,10.20
2018-10-02T02:14:04.892Z,8.30
2018-10-02T02:16:33.654Z,7.87
2018-10-02T02:19:02.497Z,12.33
2018-10-02T02:21:30.903Z,6.63
2018-10-02T02:24:00.717Z,7.30
2018-10-02T02:26:29.062Z,7.83
2018-10-02T02:28:57.706Z,8.57
2018-10-02T02:31:26.799Z,8.20
2018-10-02T02:33:56.272Z,8.53
2018-10-02T02:36:24.698Z,10.53
2018-10-02T02:38:53.399Z,11.13
2018-10-02T02:41:24.080Z,8.13
2018-10-02T02:43:52.388Z,9.27
2018-10-02T02:46:20.811Z,12.57
2018-10-02T02:48:54.723Z,13.60
2018-10-02T02:51:28.653Z,10.47
2018-10-02T02:53:57.013Z,11.20
2018-10-02T02:56:26.298Z,11.70
2018-10-02T02:58:56.464Z,8.67
2018-10-02T03:01:26.006Z,13.63
2018-10-02T03:03:54.610Z,12.77
2018-10-02T03:06:23.223Z,13.43
2018-10-02T03:08:53.318Z,17.00
2018-10-02T03:11:21.673Z,18.10
2018-10-02T03:13:50.030Z,14.40
2018-10-02T03:16:18.713Z,12.50
2018-10-02T03:18:46.995Z,19.17
2018-10-02T03:21:15.368Z,15.87
2018-10-02T03:23:45.071Z,14.13
2018-10-02T03:26:14.350Z,12.47
2018-10-02T03:28:42.805Z,14.90
2018-10-02T03:31:11.644Z,14.17
2018-10-02T03:33:40.978Z,16.33
2018-10-02T03:36:09.429Z,16.77
2018-10-02T03:38:38.225Z,14.50
2018-10-02T03:41:07.275Z,16.70
2018-10-02T03:43:39.350Z,14.13
2018-10-02T03:46:07.889Z,14.37
2018-10-02T03:48:36.656Z,10.57
2018-10-02T03:51:05.045Z,14.97
2018-10-02T03:53:33.487Z,13.50
2018-10-02T03:56:01.986Z,12.67
2018-10-02T03:58:30.879Z,11.80
2018-10-02T04:00:59.269Z,11.10
2018-10-02T04:03:34.146Z,7.33
2018-10-02T04:06:02.779Z,13.27
2018-10-02T04:08:32.630Z,11.50
2018-10-02T04:11:00.943Z,8.57
2018-10-02T04:13:29.553Z,13.00
2018-10-02T04:15:58.699Z,11.97
2018-10-02T04:18:27.131Z,8.83
2018-10-02T04:20:55.886Z,11.60
2018-10-02T04:23:24.609Z,13.17
2018-10-02T04:25:53.304Z,11.67
2018-10-02T04:28:21.582Z,18.50
2018-10-02T04:30:50.987Z,11.40
2018-10-02T04:33:19.820Z,10.40
2018-10-02T04:35:48.114Z,10.13
2018-10-02T04:38:16.377Z,11.40
2018-10-02T04:40:45.150Z,12.50
2018-10-02T04:43:13.757Z,12.93
2018-10-02T04:45:42.069Z,10.77
2018-10-02T04:48:10.597Z,12.90
2018-10-02T04:50:39.041Z,16.40
2018-10-02T04:53:07.702Z,19.00
2018-10-02T04:55:37.174Z,12.87
2018-10-02T04:58:05.930Z,14.03
2018-10-02T05:00:34.377Z,16.33
2018-10-02T05:03:03.342Z,20.57
2018-10-02T05:05:31.851Z,11.77
2018-10-02T05:08:00.315Z,16.27
2018-10-02T05:10:28.703Z,15.20
2018-10-02T05:12:57.023Z,13.80
2018-10-02T05:15:25.375Z,12.27
2018-10-02T05:17:54.546Z,13.07
2018-10-02T05:20:22.897Z,7.53
2018-10-02T05:22:51.957Z,7.47
2018-10-02T05:25:20.396Z,8.73
2018-10-02T05:27:48.759Z,7.70
2018-10-02T05:30:17.001Z,9.93
2018-10-02T05:33:25.961Z,8.03
2018-10-02T05:35:58.314Z,6.97
2018-10-02T05:38:27.083Z,11.27
2018-10-02T05:40:55.912Z,7.97
2018-10-02T05:43:24.590Z,11.33
2018-10-02T05:45:52.943Z,13.00
2018-10-02T05:48:21.433Z,7.37
2018-10-02T05:50:49.756Z,9.00
2018-10-02T05:53:19.400Z,13.30
2018-10-02T05:55:48.113Z,13.60
2018-10-02T05:58:16.547Z,13.17
2018-10-02T06:00:46.491Z,10.53
2018-10-02T06:03:15.139Z,13.83
2018-10-02T06:05:43.580Z,14.00
2018-10-02T06:08:12.591Z,15.30
2018-10-02T06:10:40.975Z,13.40
2018-10-02T06:13:09.489Z,11.23
2018-10-02T06:15:42.891Z,14.43
2018-10-02T06:18:11.396Z,8.40
2018-10-02T06:20:40.002Z,14.73
2018-10-02T06:23:09.048Z,14.80
2018-10-02T06:25:44.007Z,11.17
2018-10-02T06:28:19.374Z,14.23
2018-10-02T06:30:48.677Z,18.97
2018-10-02T06:33:19.274Z,13.10
2018-10-02T10:04:02.239Z,13.83
2018-10-02T11:02:23.379Z,8.13
2018-10-02T11:04:52.358Z,8.90
2018-10-02T11:07:21.684Z,16.50
2018-10-02T11:09:50.114Z,10.53
2018-10-02T11:12:18.367Z,12.87
2018-10-02T11:14:46.601Z,9.47
2018-10-02T11:17:14.948Z,13.07
2018-10-02T11:19:43.225Z,7.53
2018-10-02T11:22:11.980Z,12.20
2018-10-02T11:24:44.201Z,7.37
2018-10-02T11:27:13.785Z,7.80
2018-10-02T11:29:42.156Z,6.00
2018-10-02T11:32:10.607Z,10.47
2018-10-02T11:34:39.442Z,9.60
2018-10-02T11:37:07.802Z,10.17
2018-10-02T11:39:36.329Z,5.47
2018-10-02T11:42:06.229Z,8.07
2018-10-02T11:50:28.792Z,8.70
2018-10-02T11:53:00.367Z,11.23
2018-10-02T11:55:28.763Z,8.87
2018-10-02T11:57:57.914Z,10.23
2018-10-02T12:00:29.212Z,11.00
2018-10-02T12:03:01.968Z,9.93
2018-10-02T12:05:31.418Z,7.93
2018-10-02T12:08:00.564Z,8.40
2018-10-02T12:10:34.166Z,8.13
2018-10-02T12:13:04.395Z,11.27
2018-10-02T12:15:35.151Z,5.23
2018-10-02T12:18:09.651Z,5.30
2018-10-02T12:20:44.821Z,7.83
2018-10-02T12:26:04.844Z,10.77
2018-10-02T12:28:37.892Z,6.10
2018-10-02T12:31:07.955Z,7.90
2018-10-02T12:33:39.363Z,6.37
2018-10-02T12:36:09.982Z,6.20
2018-10-02T12:38:39.054Z,6.47
2018-10-02T12:41:10.699Z,3.63
2018-10-02T12:43:40.649Z,8.67
2018-10-02T12:52:18.747Z,8.17
2018-10-02T14:11:37.345Z,8.70
2018-10-02T14:14:07.426Z,5.17
2018-10-02T14:16:41.922Z,6.30
2018-10-02T14:19:23.538Z,7.60
2018-10-02T14:21:56.209Z,7.40
2018-10-02T14:24:25.864Z,8.33
2018-10-02T14:26:54.914Z,7.17
2018-10-02T14:29:25.439Z,7.10
2018-10-02T14:32:00.073Z,10.47
2018-10-02T14:34:34.642Z,9.83
2018-10-02T14:37:25.019Z,7.93
2018-10-02T14:40:00.158Z,8.60
2018-10-02T14:42:34.354Z,8.17
2018-10-02T14:45:13.545Z,8.90
2018-10-02T14:47:45.032Z,6.93
2018-10-02T14:50:23.095Z,5.90
2018-10-02T14:52:54.063Z,6.83
2018-10-02T14:55:24.399Z,13.40
2018-10-02T14:57:54.707Z,11.53
2018-10-02T15:00:23.717Z,11.37
2018-10-02T15:02:57.031Z,10.70
2018-10-02T15:05:38.074Z,12.80
2018-10-02T15:08:07.615Z,12.77
2018-10-02T15:10:51.938Z,6.87
2018-10-02T15:16:45.029Z,16.67
2018-10-02T15:37:23.033Z,12.50
2018-10-02T15:43:18.899Z,10.83
2018-10-02T15:45:59.781Z,11.87
2018-10-02T16:23:09.113Z,12.03
2018-10-02T16:25:38.413Z,14.33
2018-10-02T16:28:07.222Z,8.47
2018-10-02T16:30:35.678Z,12.07
2018-10-02T16:33:04.821Z,8.57
2018-10-02T16:35:34.099Z,17.50
2018-10-02T16:38:03.559Z,12.03
2018-10-02T16:40:32.031Z,13.30
2018-10-02T16:43:00.915Z,13.80
2018-10-02T16:45:29.563Z,12.70
2018-10-02T16:47:58.800Z,10.97
2018-10-02T16:50:28.268Z,10.83
2018-10-02T16:52:58.066Z,15.23
2018-10-02T16:55:27.822Z,9.33
2018-10-02T16:57:59.064Z,12.50
2018-10-02T17:00:27.690Z,15.33
2018-10-02T17:02:56.277Z,18.50
2018-10-02T17:05:25.144Z,13.10
2018-10-02T17:07:53.979Z,11.10
2018-10-02T17:10:22.623Z,13.37
2018-10-02T17:12:51.106Z,17.17
2018-10-02T17:15:19.385Z,12.90
2018-10-02T17:17:47.842Z,11.60
2018-10-02T17:20:16.866Z,12.80
2018-10-02T17:22:45.529Z,13.93
2018-10-02T17:25:14.351Z,15.03
2018-10-02T17:27:43.365Z,16.27
2018-10-02T17:30:11.946Z,13.20
2018-10-02T17:32:40.598Z,11.27
2018-10-02T17:35:09.769Z,13.50
2018-10-02T17:37:39.289Z,8.37
2018-10-02T17:40:08.040Z,15.80
2018-10-02T17:42:36.886Z,11.17
2018-10-02T17:45:08.213Z,15.97
2018-10-02T17:47:52.687Z,11.77
2018-10-02T17:50:33.307Z,17.90
2018-10-02T17:53:04.651Z,14.27
2018-10-02T17:55:43.123Z,13.20
2018-10-02T17:58:21.722Z,11.60
2018-10-02T18:01:03.796Z,12.20
2018-10-02T18:03:35.273Z,15.83
2018-10-02T18:06:05.090Z,15.30
2018-10-02T18:08:37.365Z,14.97
2018-10-02T18:11:15.317Z,14.30
2018-10-02T18:13:44.658Z,12.70
2018-10-02T18:16:14.624Z,15.20
2018-10-02T18:18:45.040Z,15.87
2018-10-02T18:21:18.325Z,13.10
2018-10-02T18:23:47.156Z,22.63
2018-10-02T18:26:15.793Z,10.60
2018-10-02T18:28:44.625Z,17.77
2018-10-02T18:31:13.254Z,10.20
2018-10-02T18:33:41.819Z,15.53
2018-10-02T18:36:10.933Z,15.53
2018-10-02T18:38:41.386Z,15.43
2018-10-02T18:41:12.052Z,14.57
2018-10-02T18:43:41.854Z,14.80
2018-10-02T18:46:10.421Z,17.90
2018-10-02T18:48:45.647Z,17.53
2018-10-02T18:51:14.455Z,16.33
2018-10-02T18:53:43.270Z,13.47
2018-10-02T18:56:15.653Z,15.17
2018-10-02T18:58:44.971Z,17.90
2018-10-02T19:01:15.717Z,19.93
2018-10-02T19:03:44.321Z,16.33
2018-10-02T19:06:14.530Z,13.13
2018-10-02T19:08:49.184Z,10.13
2018-10-02T19:11:24.036Z,14.80
2018-10-02T19:13:53.369Z,14.13
2018-10-02T19:16:32.202Z,10.10
2018-10-02T19:19:01.117Z,14.33
2018-10-02T19:21:31.307Z,13.50
2018-10-02T19:24:00.383Z,16.03
2018-10-02T19:26:32.570Z,16.80
2018-10-02T19:29:01.366Z,17.37
2018-10-02T19:31:43.814Z,23.93
2018-10-02T19:37:11.384Z,12.50
2018-10-02T19:39:40.266Z,16.80
2018-10-02T19:42:09.796Z,16.13
2018-10-02T19:44:38.692Z,17.27
2018-10-02T19:47:10.346Z,13.73
2018-10-02T19:50:11.064Z,18.50
2018-10-02T19:52:40.445Z,17.90
2018-10-02T19:55:10.718Z,17.23
2018-10-02T19:57:41.667Z,14.83
2018-10-02T20:00:15.285Z,17.60
2018-10-02T20:02:44.240Z,20.13
2018-10-02T20:05:12.963Z,17.80
2018-10-02T20:07:43.310Z,17.43
2018-10-02T20:10:12.061Z,12.83
2018-10-02T20:12:41.125Z,19.03
2018-10-02T20:15:09.889Z,20.40
2018-10-02T20:17:39.471Z,17.07
2018-10-02T20:20:10.286Z,11.63
2018-10-02T20:39:09.085Z,17.97
2018-10-02T20:41:54.263Z,14.13
2018-10-02T20:44:55.023Z,16.70
2018-10-02T20:47:42.483Z,15.63
2018-10-02T20:50:19.979Z,17.37
2018-10-02T20:53:31.117Z,19.67
2018-10-02T20:56:10.704Z,17.73
2018-10-02T20:58:43.732Z,20.03
2018-10-02T21:01:14.269Z,17.40
2018-10-02T21:03:44.273Z,15.07
2018-10-02T21:09:30.388Z,14.37
2018-10-02T21:15:04.407Z,18.00
2018-10-02T21:20:12.684Z,19.33
2018-10-02T21:22:41.544Z,21.53
2018-10-02T21:25:10.623Z,15.37
2018-10-02T21:27:44.439Z,18.70
2018-10-02T21:30:13.663Z,23.00
2018-10-02T21:32:45.188Z,25.33
2018-10-02T21:35:14.460Z,20.40
2018-10-02T21:37:47.419Z,15.17
2018-10-02T21:40:19.545Z,19.30
2018-10-02T21:43:21.469Z,14.57
2018-10-02T21:46:07.613Z,14.87
2018-10-02T21:52:21.017Z,21.53
2018-10-02T21:54:49.938Z,20.40
2018-10-02T21:57:31.459Z,23.13
2018-10-02T22:00:01.458Z,19.43
2018-10-02T22:02:31.020Z,20.27
2018-10-02T22:11:09.787Z,18.10
2018-10-02T22:13:45.483Z,19.00
2018-10-02T22:17:28.988Z,19.37
2018-10-02T22:20:40.613Z,28.87
2018-10-02T22:23:30.511Z,21.83
2018-10-02T22:26:11.794Z,26.27
2018-10-02T22:29:08.088Z,25.93
